sensor_id;sensor_type;location;lat;lon;timestamp;temperature;humidity
18103;DHT22;9178;51.120;6.192;2022-10-16T00:01:54;12.60;99.90
18103;DHT22;9178;51.120;6.192;2022-10-16T00:04:21;12.60;99.90
18103;DHT22;9178;51.120;6.192;2022-10-16T00:06:48;12.60;99.90
18103;DHT22;9178;51.120;6.192;2022-10-16T00:09:14;12.60;99.90
18103;DHT22;9178;51.120;6.192;2022-10-16T00:11:43;12.60;99.90
18103;DHT22;9178;51.120;6.192;2022-10-16T00:14:12;12.60;99.90
18103;DHT22;9178;51.120;6.192;2022-10-16T00:16:39;12.60;99.90
18103;DHT22;9178;51.120;6.192;2022-10-16T00:19:06;12.60;99.90
18103;DHT22;9178;51.120;6.192;2022-10-16T00:21:33;12.60;99.90
18103;DHT22;9178;51.120;6.192;2022-10-16T00:24:03;12.60;99.90
18103;DHT22;9178;51.120;6.192;2022-10-16T00:26:34;12.60;99.90
18103;DHT22;9178;51.120;6.192;2022-10-16T00:29:03;12.60;99.90
18103;DHT22;9178;51.120;6.192;2022-10-16T00:31:30;12.60;99.90
18103;DHT22;9178;51.120;6.192;2022-10-16T00:33:57;12.70;99.90
18103;DHT22;9178;51.120;6.192;2022-10-16T00:36:25;12.60;99.90
18103;DHT22;9178;51.120;6.192;2022-10-16T00:38:53;12.70;99.90
18103;DHT22;9178;51.120;6.192;2022-10-16T00:41:22;12.70;99.90
18103;DHT22;9178;51.120;6.192;2022-10-16T00:43:50;12.70;99.90
18103;DHT22;9178;51.120;6.192;2022-10-16T00:46:20;12.70;99.90
18103;DHT22;9178;51.120;6.192;2022-10-16T00:48:51;12.70;99.90
18103;DHT22;9178;51.120;6.192;2022-10-16T00:51:21;12.60;99.90
18103;DHT22;9178;51.120;6.192;2022-10-16T00:53:50;12.70;99.90
18103;DHT22;9178;51.120;6.192;2022-10-16T00:56:17;12.60;99.90
18103;DHT22;9178;51.120;6.192;2022-10-16T00:58:44;12.60;99.90
18103;DHT22;9178;51.120;6.192;2022-10-16T01:01:11;12.60;99.90
18103;DHT22;9178;51.120;6.192;2022-10-16T01:03:40;12.60;99.90
18103;DHT22;9178;51.120;6.192;2022-10-16T01:06:23;12.60;99.90
18103;DHT22;9178;51.120;6.192;2022-10-16T01:09:02;12.60;99.90
18103;DHT22;9178;51.120;6.192;2022-10-16T01:11:35;12.50;99.90
18103;DHT22;9178;51.120;6.192;2022-10-16T01:14:11;12.50;99.90
18103;DHT22;9178;51.120;6.192;2022-10-16T01:16:44;12.50;99.90
18103;DHT22;9178;51.120;6.192;2022-10-16T01:19:19;12.50;99.90
18103;DHT22;9178;51.120;6.192;2022-10-16T01:21:48;12.50;99.90
18103;DHT22;9178;51.120;6.192;2022-10-16T01:24:26;12.50;99.90
18103;DHT22;9178;51.120;6.192;2022-10-16T01:27:12;12.50;99.90
18103;DHT22;9178;51.120;6.192;2022-10-16T01:29:45;12.50;99.90
18103;DHT22;9178;51.120;6.192;2022-10-16T01:32:17;12.40;99.90
18103;DHT22;9178;51.120;6.192;2022-10-16T01:34:51;12.50;99.90
18103;DHT22;9178;51.120;6.192;2022-10-16T01:37:25;12.40;99.90
18103;DHT22;9178;51.120;6.192;2022-10-16T01:39:58;12.40;99.90
18103;DHT22;9178;51.120;6.192;2022-10-16T01:42:31;12.40;99.90
18103;DHT22;9178;51.120;6.192;2022-10-16T01:44:59;12.40;99.90
18103;DHT22;9178;51.120;6.192;2022-10-16T01:47:27;12.40;99.90
18103;DHT22;9178;51.120;6.192;2022-10-16T01:49:58;12.40;99.90
18103;DHT22;9178;51.120;6.192;2022-10-16T01:52:27;12.30;99.90
18103;DHT22;9178;51.120;6.192;2022-10-16T01:54:56;12.30;99.90
18103;DHT22;9178;51.120;6.192;2022-10-16T01:57:25;12.20;99.90
18103;DHT22;9178;51.120;6.192;2022-10-16T01:59:57;12.30;99.90
18103;DHT22;9178;51.120;6.192;2022-10-16T02:02:29;12.20;99.90
18103;DHT22;9178;51.120;6.192;2022-10-16T02:05:01;12.20;99.90
18103;DHT22;9178;51.120;6.192;2022-10-16T02:07:29;12.20;99.90
18103;DHT22;9178;51.120;6.192;2022-10-16T02:09:56;12.20;99.90
18103;DHT22;9178;51.120;6.192;2022-10-16T02:12:27;12.20;99.90
18103;DHT22;9178;51.120;6.192;2022-10-16T02:14:56;12.20;99.90
18103;DHT22;9178;51.120;6.192;2022-10-16T02:17:24;12.20;99.90
18103;DHT22;9178;51.120;6.192;2022-10-16T02:19:53;12.20;99.90
18103;DHT22;9178;51.120;6.192;2022-10-16T02:22:24;12.30;99.90
18103;DHT22;9178;51.120;6.192;2022-10-16T02:24:57;12.30;99.90
18103;DHT22;9178;51.120;6.192;2022-10-16T02:27:28;12.30;99.90
18103;DHT22;9178;51.120;6.192;2022-10-16T02:30:05;12.30;99.90
18103;DHT22;9178;51.120;6.192;2022-10-16T02:32:35;12.40;99.90
18103;DHT22;9178;51.120;6.192;2022-10-16T02:35:06;12.40;99.90
18103;DHT22;9178;51.120;6.192;2022-10-16T02:37:34;12.40;99.90
18103;DHT22;9178;51.120;6.192;2022-10-16T02:40:01;12.40;99.90
18103;DHT22;9178;51.120;6.192;2022-10-16T02:42:33;12.40;99.90
18103;DHT22;9178;51.120;6.192;2022-10-16T02:45:02;12.40;99.90
18103;DHT22;9178;51.120;6.192;2022-10-16T02:47:29;12.40;99.90
18103;DHT22;9178;51.120;6.192;2022-10-16T02:49:56;12.30;99.90
18103;DHT22;9178;51.120;6.192;2022-10-16T02:52:23;12.30;99.90
18103;DHT22;9178;51.120;6.192;2022-10-16T02:54:50;12.30;99.90
18103;DHT22;9178;51.120;6.192;2022-10-16T02:57:17;12.30;99.90
18103;DHT22;9178;51.120;6.192;2022-10-16T02:59:44;12.30;99.90
18103;DHT22;9178;51.120;6.192;2022-10-16T03:02:12;12.30;99.90
18103;DHT22;9178;51.120;6.192;2022-10-16T03:04:39;12.30;99.90
18103;DHT22;9178;51.120;6.192;2022-10-16T03:07:05;12.30;99.90
18103;DHT22;9178;51.120;6.192;2022-10-16T03:09:33;12.30;99.90
18103;DHT22;9178;51.120;6.192;2022-10-16T03:11:59;12.30;99.90
18103;DHT22;9178;51.120;6.192;2022-10-16T03:14:26;12.30;99.90
18103;DHT22;9178;51.120;6.192;2022-10-16T03:16:54;12.30;99.90
18103;DHT22;9178;51.120;6.192;2022-10-16T03:19:23;12.30;99.90
18103;DHT22;9178;51.120;6.192;2022-10-16T03:21:49;12.30;99.90
18103;DHT22;9178;51.120;6.192;2022-10-16T03:24:16;12.30;99.90
18103;DHT22;9178;51.120;6.192;2022-10-16T03:26:43;12.20;99.90
18103;DHT22;9178;51.120;6.192;2022-10-16T03:29:10;12.20;99.90
18103;DHT22;9178;51.120;6.192;2022-10-16T03:31:37;12.20;99.90
18103;DHT22;9178;51.120;6.192;2022-10-16T03:34:03;12.20;99.90
18103;DHT22;9178;51.120;6.192;2022-10-16T03:36:31;12.20;99.90
18103;DHT22;9178;51.120;6.192;2022-10-16T03:39:01;12.20;99.90
18103;DHT22;9178;51.120;6.192;2022-10-16T03:41:28;12.10;99.90
18103;DHT22;9178;51.120;6.192;2022-10-16T03:43:55;12.10;99.90
18103;DHT22;9178;51.120;6.192;2022-10-16T03:46:22;12.10;99.90
18103;DHT22;9178;51.120;6.192;2022-10-16T03:48:48;12.10;99.90
18103;DHT22;9178;51.120;6.192;2022-10-16T03:51:15;12.00;99.90
18103;DHT22;9178;51.120;6.192;2022-10-16T03:53:43;12.00;99.90
18103;DHT22;9178;51.120;6.192;2022-10-16T03:56:10;12.00;99.90
18103;DHT22;9178;51.120;6.192;2022-10-16T03:58:37;11.90;99.90
18103;DHT22;9178;51.120;6.192;2022-10-16T04:01:04;11.90;99.90
18103;DHT22;9178;51.120;6.192;2022-10-16T04:03:31;11.90;99.90
18103;DHT22;9178;51.120;6.192;2022-10-16T04:05:57;11.80;99.90
18103;DHT22;9178;51.120;6.192;2022-10-16T04:08:24;11.80;99.90
18103;DHT22;9178;51.120;6.192;2022-10-16T04:10:52;11.80;99.90
18103;DHT22;9178;51.120;6.192;2022-10-16T04:13:19;11.80;99.90
18103;DHT22;9178;51.120;6.192;2022-10-16T04:15:46;11.80;99.90
18103;DHT22;9178;51.120;6.192;2022-10-16T04:18:13;11.70;99.90
18103;DHT22;9178;51.120;6.192;2022-10-16T04:20:40;11.70;99.90
18103;DHT22;9178;51.120;6.192;2022-10-16T04:23:07;11.70;99.90
18103;DHT22;9178;51.120;6.192;2022-10-16T04:25:34;11.70;99.90
18103;DHT22;9178;51.120;6.192;2022-10-16T04:28:02;11.60;99.90
18103;DHT22;9178;51.120;6.192;2022-10-16T04:30:29;11.60;99.90
18103;DHT22;9178;51.120;6.192;2022-10-16T04:32:56;11.60;99.90
18103;DHT22;9178;51.120;6.192;2022-10-16T04:35:22;11.60;99.90
18103;DHT22;9178;51.120;6.192;2022-10-16T04:37:49;11.60;99.90
18103;DHT22;9178;51.120;6.192;2022-10-16T04:40:17;11.60;99.90
18103;DHT22;9178;51.120;6.192;2022-10-16T04:42:44;11.60;99.90
18103;DHT22;9178;51.120;6.192;2022-10-16T04:45:12;11.60;99.90
18103;DHT22;9178;51.120;6.192;2022-10-16T04:47:39;11.60;99.90
18103;DHT22;9178;51.120;6.192;2022-10-16T04:50:06;11.60;99.90
18103;DHT22;9178;51.120;6.192;2022-10-16T04:52:33;11.60;99.90
18103;DHT22;9178;51.120;6.192;2022-10-16T04:55:01;11.60;99.90
18103;DHT22;9178;51.120;6.192;2022-10-16T04:57:28;11.60;99.90
18103;DHT22;9178;51.120;6.192;2022-10-16T04:59:55;11.60;99.90
18103;DHT22;9178;51.120;6.192;2022-10-16T05:02:24;11.60;99.90
18103;DHT22;9178;51.120;6.192;2022-10-16T05:04:51;11.50;99.90
18103;DHT22;9178;51.120;6.192;2022-10-16T05:07:18;11.50;99.90
18103;DHT22;9178;51.120;6.192;2022-10-16T05:09:45;11.50;99.90
18103;DHT22;9178;51.120;6.192;2022-10-16T05:12:12;11.50;99.90
18103;DHT22;9178;51.120;6.192;2022-10-16T05:14:38;11.50;99.90
18103;DHT22;9178;51.120;6.192;2022-10-16T05:17:05;11.50;99.90
18103;DHT22;9178;51.120;6.192;2022-10-16T05:19:34;11.50;99.90
18103;DHT22;9178;51.120;6.192;2022-10-16T05:22:01;11.50;99.90
18103;DHT22;9178;51.120;6.192;2022-10-16T05:24:27;11.50;99.90
18103;DHT22;9178;51.120;6.192;2022-10-16T05:26:54;11.50;99.90
18103;DHT22;9178;51.120;6.192;2022-10-16T05:29:21;11.60;99.90
18103;DHT22;9178;51.120;6.192;2022-10-16T05:31:50;11.60;99.90
18103;DHT22;9178;51.120;6.192;2022-10-16T05:34:18;11.60;99.90
18103;DHT22;9178;51.120;6.192;2022-10-16T05:36:46;11.60;99.90
18103;DHT22;9178;51.120;6.192;2022-10-16T05:39:14;11.50;99.90
18103;DHT22;9178;51.120;6.192;2022-10-16T05:41:41;11.50;99.90
18103;DHT22;9178;51.120;6.192;2022-10-16T05:44:08;11.60;99.90
18103;DHT22;9178;51.120;6.192;2022-10-16T05:46:35;11.50;99.90
18103;DHT22;9178;51.120;6.192;2022-10-16T05:49:02;11.60;99.90
18103;DHT22;9178;51.120;6.192;2022-10-16T05:51:29;11.60;99.90
18103;DHT22;9178;51.120;6.192;2022-10-16T05:53:57;11.60;99.90
18103;DHT22;9178;51.120;6.192;2022-10-16T05:56:24;11.60;99.90
18103;DHT22;9178;51.120;6.192;2022-10-16T05:58:51;11.60;99.90
18103;DHT22;9178;51.120;6.192;2022-10-16T06:01:18;11.60;99.90
18103;DHT22;9178;51.120;6.192;2022-10-16T06:03:46;11.60;99.90
18103;DHT22;9178;51.120;6.192;2022-10-16T06:06:14;11.70;99.90
18103;DHT22;9178;51.120;6.192;2022-10-16T06:08:43;11.80;99.90
18103;DHT22;9178;51.120;6.192;2022-10-16T06:11:13;11.80;99.90
18103;DHT22;9178;51.120;6.192;2022-10-16T06:13:40;11.80;99.90
18103;DHT22;9178;51.120;6.192;2022-10-16T06:16:08;11.80;99.90
18103;DHT22;9178;51.120;6.192;2022-10-16T06:18:35;11.80;99.90
18103;DHT22;9178;51.120;6.192;2022-10-16T06:21:07;11.80;99.90
18103;DHT22;9178;51.120;6.192;2022-10-16T06:23:34;11.80;99.90
18103;DHT22;9178;51.120;6.192;2022-10-16T06:26:05;11.80;99.90
18103;DHT22;9178;51.120;6.192;2022-10-16T06:28:33;11.80;99.90
18103;DHT22;9178;51.120;6.192;2022-10-16T06:31:00;11.80;99.90
18103;DHT22;9178;51.120;6.192;2022-10-16T06:33:27;11.80;99.90
18103;DHT22;9178;51.120;6.192;2022-10-16T06:36:00;11.80;99.90
18103;DHT22;9178;51.120;6.192;2022-10-16T06:38:27;11.80;99.90
18103;DHT22;9178;51.120;6.192;2022-10-16T06:40:53;11.80;99.90
18103;DHT22;9178;51.120;6.192;2022-10-16T06:43:20;11.80;99.90
18103;DHT22;9178;51.120;6.192;2022-10-16T06:45:52;11.90;99.90
18103;DHT22;9178;51.120;6.192;2022-10-16T06:48:19;11.80;99.90
18103;DHT22;9178;51.120;6.192;2022-10-16T06:50:55;11.80;99.90
18103;DHT22;9178;51.120;6.192;2022-10-16T06:53:23;11.80;99.90
18103;DHT22;9178;51.120;6.192;2022-10-16T06:55:50;11.80;99.90
18103;DHT22;9178;51.120;6.192;2022-10-16T06:58:16;11.80;99.90
18103;DHT22;9178;51.120;6.192;2022-10-16T07:00:43;11.90;99.90
18103;DHT22;9178;51.120;6.192;2022-10-16T07:03:12;11.80;99.90
18103;DHT22;9178;51.120;6.192;2022-10-16T07:05:39;11.80;99.90
18103;DHT22;9178;51.120;6.192;2022-10-16T07:08:05;11.90;99.90
18103;DHT22;9178;51.120;6.192;2022-10-16T07:10:32;11.80;99.90
18103;DHT22;9178;51.120;6.192;2022-10-16T07:12:59;11.90;99.90
18103;DHT22;9178;51.120;6.192;2022-10-16T07:15:27;11.90;99.90
18103;DHT22;9178;51.120;6.192;2022-10-16T07:17:54;11.90;99.90
18103;DHT22;9178;51.120;6.192;2022-10-16T07:20:22;11.90;99.90
18103;DHT22;9178;51.120;6.192;2022-10-16T07:22:51;12.00;99.90
18103;DHT22;9178;51.120;6.192;2022-10-16T07:25:18;12.00;99.90
18103;DHT22;9178;51.120;6.192;2022-10-16T07:27:44;12.40;99.90
18103;DHT22;9178;51.120;6.192;2022-10-16T07:30:11;12.70;99.90
18103;DHT22;9178;51.120;6.192;2022-10-16T07:32:38;13.00;99.90
18103;DHT22;9178;51.120;6.192;2022-10-16T07:35:06;13.00;99.90
18103;DHT22;9178;51.120;6.192;2022-10-16T07:37:34;13.00;99.90
18103;DHT22;9178;51.120;6.192;2022-10-16T07:40:01;13.10;99.90
18103;DHT22;9178;51.120;6.192;2022-10-16T07:42:29;13.20;99.90
18103;DHT22;9178;51.120;6.192;2022-10-16T07:44:56;13.30;99.90
18103;DHT22;9178;51.120;6.192;2022-10-16T07:47:23;13.50;99.90
18103;DHT22;9178;51.120;6.192;2022-10-16T07:49:50;13.40;99.90
18103;DHT22;9178;51.120;6.192;2022-10-16T07:52:17;13.50;99.90
18103;DHT22;9178;51.120;6.192;2022-10-16T07:54:45;13.50;99.90
18103;DHT22;9178;51.120;6.192;2022-10-16T07:57:15;13.50;99.90
18103;DHT22;9178;51.120;6.192;2022-10-16T07:59:45;13.60;99.90
18103;DHT22;9178;51.120;6.192;2022-10-16T08:02:12;13.90;99.90
18103;DHT22;9178;51.120;6.192;2022-10-16T08:04:39;14.60;99.90
18103;DHT22;9178;51.120;6.192;2022-10-16T08:07:07;15.00;99.90
18103;DHT22;9178;51.120;6.192;2022-10-16T08:09:34;15.10;99.90
18103;DHT22;9178;51.120;6.192;2022-10-16T08:12:02;15.50;99.90
18103;DHT22;9178;51.120;6.192;2022-10-16T08:14:29;15.50;99.90
18103;DHT22;9178;51.120;6.192;2022-10-16T08:16:56;15.30;99.90
18103;DHT22;9178;51.120;6.192;2022-10-16T08:19:23;15.10;99.90
18103;DHT22;9178;51.120;6.192;2022-10-16T08:21:50;14.80;99.90
18103;DHT22;9178;51.120;6.192;2022-10-16T08:24:17;14.60;99.90
18103;DHT22;9178;51.120;6.192;2022-10-16T08:26:43;14.50;99.90
18103;DHT22;9178;51.120;6.192;2022-10-16T08:29:18;14.40;99.90
18103;DHT22;9178;51.120;6.192;2022-10-16T08:31:44;14.30;99.90
18103;DHT22;9178;51.120;6.192;2022-10-16T08:34:11;14.30;99.90
18103;DHT22;9178;51.120;6.192;2022-10-16T08:36:38;14.20;99.90
18103;DHT22;9178;51.120;6.192;2022-10-16T08:39:05;14.20;99.90
18103;DHT22;9178;51.120;6.192;2022-10-16T08:41:50;14.20;99.90
18103;DHT22;9178;51.120;6.192;2022-10-16T08:47:26;14.30;99.90
18103;DHT22;9178;51.120;6.192;2022-10-16T08:50:00;14.30;99.90
18103;DHT22;9178;51.120;6.192;2022-10-16T08:52:32;14.30;99.90
18103;DHT22;9178;51.120;6.192;2022-10-16T08:55:01;14.30;99.90
18103;DHT22;9178;51.120;6.192;2022-10-16T08:57:29;14.30;99.90
18103;DHT22;9178;51.120;6.192;2022-10-16T09:00:00;14.30;99.90
18103;DHT22;9178;51.120;6.192;2022-10-16T09:02:36;14.30;99.90
18103;DHT22;9178;51.120;6.192;2022-10-16T09:05:23;14.40;99.90
18103;DHT22;9178;51.120;6.192;2022-10-16T09:08:03;14.40;99.90
18103;DHT22;9178;51.120;6.192;2022-10-16T09:10:39;14.50;99.90
18103;DHT22;9178;51.120;6.192;2022-10-16T09:13:18;14.50;99.90
18103;DHT22;9178;51.120;6.192;2022-10-16T09:15:51;14.50;99.90
18103;DHT22;9178;51.120;6.192;2022-10-16T09:18:27;14.60;99.90
18103;DHT22;9178;51.120;6.192;2022-10-16T09:21:01;14.60;99.90
18103;DHT22;9178;51.120;6.192;2022-10-16T09:23:35;14.60;99.90
18103;DHT22;9178;51.120;6.192;2022-10-16T09:26:03;14.60;99.90
18103;DHT22;9178;51.120;6.192;2022-10-16T09:28:31;14.70;99.90
18103;DHT22;9178;51.120;6.192;2022-10-16T09:30:58;14.70;99.90
18103;DHT22;9178;51.120;6.192;2022-10-16T09:33:30;14.80;99.90
18103;DHT22;9178;51.120;6.192;2022-10-16T09:36:00;14.80;99.90
18103;DHT22;9178;51.120;6.192;2022-10-16T09:38:30;14.90;99.90
18103;DHT22;9178;51.120;6.192;2022-10-16T09:40:58;14.90;99.90
18103;DHT22;9178;51.120;6.192;2022-10-16T09:43:36;15.00;99.90
18103;DHT22;9178;51.120;6.192;2022-10-16T09:46:07;15.00;99.90
18103;DHT22;9178;51.120;6.192;2022-10-16T09:48:39;15.10;99.90
18103;DHT22;9178;51.120;6.192;2022-10-16T09:51:22;15.10;99.90
18103;DHT22;9178;51.120;6.192;2022-10-16T09:53:55;15.10;99.90
18103;DHT22;9178;51.120;6.192;2022-10-16T09:56:25;15.10;99.90
18103;DHT22;9178;51.120;6.192;2022-10-16T09:58:53;15.10;99.90
18103;DHT22;9178;51.120;6.192;2022-10-16T10:01:21;15.20;99.90
18103;DHT22;9178;51.120;6.192;2022-10-16T10:03:50;15.30;99.90
18103;DHT22;9178;51.120;6.192;2022-10-16T10:06:22;15.30;99.90
18103;DHT22;9178;51.120;6.192;2022-10-16T10:08:58;15.40;99.90
18103;DHT22;9178;51.120;6.192;2022-10-16T10:11:43;15.50;99.90
18103;DHT22;9178;51.120;6.192;2022-10-16T10:14:20;15.50;99.90
18103;DHT22;9178;51.120;6.192;2022-10-16T10:16:48;15.50;99.90
18103;DHT22;9178;51.120;6.192;2022-10-16T10:19:17;15.50;99.90
18103;DHT22;9178;51.120;6.192;2022-10-16T10:21:44;15.50;99.90
18103;DHT22;9178;51.120;6.192;2022-10-16T10:24:13;15.60;99.90
18103;DHT22;9178;51.120;6.192;2022-10-16T10:26:47;15.60;99.90
18103;DHT22;9178;51.120;6.192;2022-10-16T10:29:20;15.60;99.90
18103;DHT22;9178;51.120;6.192;2022-10-16T10:31:57;15.70;99.90
18103;DHT22;9178;51.120;6.192;2022-10-16T10:34:41;15.70;99.90
18103;DHT22;9178;51.120;6.192;2022-10-16T10:37:23;15.90;99.90
18103;DHT22;9178;51.120;6.192;2022-10-16T10:39:57;16.00;99.90
18103;DHT22;9178;51.120;6.192;2022-10-16T10:42:32;16.10;99.90
18103;DHT22;9178;51.120;6.192;2022-10-16T10:45:14;16.50;99.90
18103;DHT22;9178;51.120;6.192;2022-10-16T10:47:48;16.80;99.90
18103;DHT22;9178;51.120;6.192;2022-10-16T10:50:24;17.00;99.90
18103;DHT22;9178;51.120;6.192;2022-10-16T10:52:59;16.90;99.90
18103;DHT22;9178;51.120;6.192;2022-10-16T10:55:37;16.90;99.90
18103;DHT22;9178;51.120;6.192;2022-10-16T10:58:35;16.80;99.90
18103;DHT22;9178;51.120;6.192;2022-10-16T11:01:09;16.80;99.90
18103;DHT22;9178;51.120;6.192;2022-10-16T11:06:48;16.90;99.90
18103;DHT22;9178;51.120;6.192;2022-10-16T11:09:24;16.90;99.90
18103;DHT22;9178;51.120;6.192;2022-10-16T11:12:11;17.00;99.90
18103;DHT22;9178;51.120;6.192;2022-10-16T11:15:02;16.80;99.90
18103;DHT22;9178;51.120;6.192;2022-10-16T11:17:46;16.90;99.90
18103;DHT22;9178;51.120;6.192;2022-10-16T11:20:20;16.90;99.90
18103;DHT22;9178;51.120;6.192;2022-10-16T11:22:56;17.00;99.90
18103;DHT22;9178;51.120;6.192;2022-10-16T11:25:27;17.00;99.90
18103;DHT22;9178;51.120;6.192;2022-10-16T11:27:59;17.00;99.90
18103;DHT22;9178;51.120;6.192;2022-10-16T11:30:29;17.10;99.90
18103;DHT22;9178;51.120;6.192;2022-10-16T11:33:04;17.20;99.90
18103;DHT22;9178;51.120;6.192;2022-10-16T11:35:41;17.30;99.90
18103;DHT22;9178;51.120;6.192;2022-10-16T11:38:18;17.40;99.90
18103;DHT22;9178;51.120;6.192;2022-10-16T11:40:50;17.40;99.90
18103;DHT22;9178;51.120;6.192;2022-10-16T11:43:24;17.50;99.90
18103;DHT22;9178;51.120;6.192;2022-10-16T11:45:54;17.50;99.90
18103;DHT22;9178;51.120;6.192;2022-10-16T11:48:26;17.50;99.90
18103;DHT22;9178;51.120;6.192;2022-10-16T11:50:56;17.30;99.90
18103;DHT22;9178;51.120;6.192;2022-10-16T11:53:35;17.40;99.90
18103;DHT22;9178;51.120;6.192;2022-10-16T11:56:05;17.50;99.90
18103;DHT22;9178;51.120;6.192;2022-10-16T11:58:36;17.50;99.90
18103;DHT22;9178;51.120;6.192;2022-10-16T12:01:16;17.40;99.90
18103;DHT22;9178;51.120;6.192;2022-10-16T12:03:46;17.30;99.90
18103;DHT22;9178;51.120;6.192;2022-10-16T12:06:25;17.30;99.90
18103;DHT22;9178;51.120;6.192;2022-10-16T12:08:55;17.30;99.90
18103;DHT22;9178;51.120;6.192;2022-10-16T12:11:32;17.40;99.90
18103;DHT22;9178;51.120;6.192;2022-10-16T12:14:22;17.40;99.90
18103;DHT22;9178;51.120;6.192;2022-10-16T12:17:00;17.40;99.90
18103;DHT22;9178;51.120;6.192;2022-10-16T12:19:29;17.50;99.90
18103;DHT22;9178;51.120;6.192;2022-10-16T12:21:58;17.50;99.90
18103;DHT22;9178;51.120;6.192;2022-10-16T12:24:33;17.50;99.90
18103;DHT22;9178;51.120;6.192;2022-10-16T12:27:01;17.60;99.90
18103;DHT22;9178;51.120;6.192;2022-10-16T12:29:34;17.60;99.90
18103;DHT22;9178;51.120;6.192;2022-10-16T12:32:03;17.70;99.90
18103;DHT22;9178;51.120;6.192;2022-10-16T12:34:37;17.70;99.90
18103;DHT22;9178;51.120;6.192;2022-10-16T12:37:23;17.80;99.90
18103;DHT22;9178;51.120;6.192;2022-10-16T12:39:53;17.80;99.90
18103;DHT22;9178;51.120;6.192;2022-10-16T12:42:30;17.80;99.90
18103;DHT22;9178;51.120;6.192;2022-10-16T12:44:59;17.80;99.90
18103;DHT22;9178;51.120;6.192;2022-10-16T12:47:37;17.80;99.90
18103;DHT22;9178;51.120;6.192;2022-10-16T12:50:23;17.80;99.90
18103;DHT22;9178;51.120;6.192;2022-10-16T12:52:50;17.90;99.90
18103;DHT22;9178;51.120;6.192;2022-10-16T12:55:20;18.00;99.90
18103;DHT22;9178;51.120;6.192;2022-10-16T12:58:00;18.10;99.90
18103;DHT22;9178;51.120;6.192;2022-10-16T13:00:32;18.20;99.90
18103;DHT22;9178;51.120;6.192;2022-10-16T13:03:29;18.30;99.90
18103;DHT22;9178;51.120;6.192;2022-10-16T13:06:13;18.40;99.90
18103;DHT22;9178;51.120;6.192;2022-10-16T13:11:51;18.60;99.90
18103;DHT22;9178;51.120;6.192;2022-10-16T13:14:33;18.60;99.90
18103;DHT22;9178;51.120;6.192;2022-10-16T13:17:08;18.70;99.90
18103;DHT22;9178;51.120;6.192;2022-10-16T13:19:42;18.70;99.90
18103;DHT22;9178;51.120;6.192;2022-10-16T13:22:17;18.80;99.90
18103;DHT22;9178;51.120;6.192;2022-10-16T13:25:02;18.90;99.90
18103;DHT22;9178;51.120;6.192;2022-10-16T13:27:51;18.90;99.90
18103;DHT22;9178;51.120;6.192;2022-10-16T13:30:25;19.00;99.90
18103;DHT22;9178;51.120;6.192;2022-10-16T13:32:59;19.00;99.90
18103;DHT22;9178;51.120;6.192;2022-10-16T13:35:29;19.00;99.90
18103;DHT22;9178;51.120;6.192;2022-10-16T13:38:12;19.10;99.90
18103;DHT22;9178;51.120;6.192;2022-10-16T13:40:49;19.10;99.90
18103;DHT22;9178;51.120;6.192;2022-10-16T13:43:20;19.00;99.90
18103;DHT22;9178;51.120;6.192;2022-10-16T13:45:56;18.90;99.90
18103;DHT22;9178;51.120;6.192;2022-10-16T13:48:24;18.80;99.90
18103;DHT22;9178;51.120;6.192;2022-10-16T13:51:05;18.80;99.90
18103;DHT22;9178;51.120;6.192;2022-10-16T13:53:34;18.80;99.90
18103;DHT22;9178;51.120;6.192;2022-10-16T13:56:03;18.80;99.90
18103;DHT22;9178;51.120;6.192;2022-10-16T13:58:32;18.70;99.90
18103;DHT22;9178;51.120;6.192;2022-10-16T14:01:01;18.60;99.90
18103;DHT22;9178;51.120;6.192;2022-10-16T14:03:30;18.60;99.90
18103;DHT22;9178;51.120;6.192;2022-10-16T14:05:58;18.70;99.90
18103;DHT22;9178;51.120;6.192;2022-10-16T14:08:26;18.70;99.90
18103;DHT22;9178;51.120;6.192;2022-10-16T14:10:56;18.70;99.90
18103;DHT22;9178;51.120;6.192;2022-10-16T14:13:30;18.70;99.90
18103;DHT22;9178;51.120;6.192;2022-10-16T14:16:02;18.60;99.90
18103;DHT22;9178;51.120;6.192;2022-10-16T14:18:29;18.60;99.90
18103;DHT22;9178;51.120;6.192;2022-10-16T14:21:03;18.60;99.90
18103;DHT22;9178;51.120;6.192;2022-10-16T14:23:31;18.60;99.90
18103;DHT22;9178;51.120;6.192;2022-10-16T14:26:15;18.70;99.90
18103;DHT22;9178;51.120;6.192;2022-10-16T14:28:43;18.60;99.90
18103;DHT22;9178;51.120;6.192;2022-10-16T14:31:31;18.60;99.90
18103;DHT22;9178;51.120;6.192;2022-10-16T14:33:59;18.50;99.90
18103;DHT22;9178;51.120;6.192;2022-10-16T14:36:27;18.40;99.90
18103;DHT22;9178;51.120;6.192;2022-10-16T14:38:59;18.40;99.90
18103;DHT22;9178;51.120;6.192;2022-10-16T14:41:27;18.30;99.90
18103;DHT22;9178;51.120;6.192;2022-10-16T14:43:56;18.20;99.90
18103;DHT22;9178;51.120;6.192;2022-10-16T14:46:31;18.20;99.90
18103;DHT22;9178;51.120;6.192;2022-10-16T14:49:03;18.30;99.90
18103;DHT22;9178;51.120;6.192;2022-10-16T14:51:31;18.30;99.90
18103;DHT22;9178;51.120;6.192;2022-10-16T14:53:58;18.20;99.90
18103;DHT22;9178;51.120;6.192;2022-10-16T14:56:29;18.10;99.90
18103;DHT22;9178;51.120;6.192;2022-10-16T14:58:57;18.10;99.90
18103;DHT22;9178;51.120;6.192;2022-10-16T15:01:24;18.00;99.90
18103;DHT22;9178;51.120;6.192;2022-10-16T15:03:53;17.90;99.90
18103;DHT22;9178;51.120;6.192;2022-10-16T15:06:23;17.90;99.90
18103;DHT22;9178;51.120;6.192;2022-10-16T15:08:50;17.90;99.90
18103;DHT22;9178;51.120;6.192;2022-10-16T15:11:18;17.90;99.90
18103;DHT22;9178;51.120;6.192;2022-10-16T15:13:45;17.90;99.90
18103;DHT22;9178;51.120;6.192;2022-10-16T15:16:14;17.80;99.90
18103;DHT22;9178;51.120;6.192;2022-10-16T15:18:41;17.80;99.90
18103;DHT22;9178;51.120;6.192;2022-10-16T15:21:25;17.70;99.90
18103;DHT22;9178;51.120;6.192;2022-10-16T15:23:53;17.70;99.90
18103;DHT22;9178;51.120;6.192;2022-10-16T15:26:19;17.70;99.90
18103;DHT22;9178;51.120;6.192;2022-10-16T15:28:46;17.70;99.90
18103;DHT22;9178;51.120;6.192;2022-10-16T15:31:13;17.60;99.90
18103;DHT22;9178;51.120;6.192;2022-10-16T15:33:40;17.60;99.90
18103;DHT22;9178;51.120;6.192;2022-10-16T15:36:07;17.60;99.90
18103;DHT22;9178;51.120;6.192;2022-10-16T15:38:35;17.60;99.90
18103;DHT22;9178;51.120;6.192;2022-10-16T15:41:02;17.50;99.90
18103;DHT22;9178;51.120;6.192;2022-10-16T15:43:29;17.50;99.90
18103;DHT22;9178;51.120;6.192;2022-10-16T15:46:01;17.50;99.90
18103;DHT22;9178;51.120;6.192;2022-10-16T15:48:29;17.40;99.90
18103;DHT22;9178;51.120;6.192;2022-10-16T15:50:56;17.40;99.90
18103;DHT22;9178;51.120;6.192;2022-10-16T15:53:23;17.30;99.90
18103;DHT22;9178;51.120;6.192;2022-10-16T15:55:51;17.20;99.90
18103;DHT22;9178;51.120;6.192;2022-10-16T15:58:18;17.10;99.90
18103;DHT22;9178;51.120;6.192;2022-10-16T16:00:45;17.10;99.90
18103;DHT22;9178;51.120;6.192;2022-10-16T16:03:20;17.10;99.90
18103;DHT22;9178;51.120;6.192;2022-10-16T16:05:47;17.10;99.90
18103;DHT22;9178;51.120;6.192;2022-10-16T16:08:14;17.10;99.90
18103;DHT22;9178;51.120;6.192;2022-10-16T16:10:42;17.10;99.90
18103;DHT22;9178;51.120;6.192;2022-10-16T16:13:10;17.00;99.90
18103;DHT22;9178;51.120;6.192;2022-10-16T16:15:38;17.00;99.90